createdAt,value
2018-01-30T00:02:29.016Z,2.40
2018-01-30T00:04:58.303Z,0.70
2018-01-30T00:07:27.533Z,0.60
2018-01-30T00:09:56.760Z,4.65
2018-01-30T00:12:26.164Z,0.60
2018-01-30T00:14:55.515Z,0.70
2018-01-30T00:17:24.789Z,0.70
2018-01-30T00:19:54.056Z,0.70
2018-01-30T00:22:23.281Z,0.60
2018-01-30T00:24:52.672Z,0.60
2018-01-30T00:27:21.891Z,0.70
2018-01-30T00:29:51.138Z,1.92
2018-01-30T00:32:20.493Z,1.37
2018-01-30T00:34:49.761Z,1.52
2018-01-30T00:37:19.243Z,1.12
2018-01-30T00:39:48.468Z,0.90
2018-01-30T00:42:17.720Z,0.68
2018-01-30T00:44:46.928Z,1.70
2018-01-30T00:47:16.182Z,5.22
2018-01-30T00:49:45.467Z,2.15
2018-01-30T00:52:14.750Z,0.80
2018-01-30T00:54:44.005Z,0.80
2018-01-30T00:57:22.052Z,0.70
2018-01-30T00:59:51.315Z,1.08
2018-01-30T01:02:20.528Z,1.05
2018-01-30T01:04:49.809Z,1.25
2018-01-30T01:07:19.025Z,0.60
2018-01-30T01:09:48.256Z,0.70
2018-01-30T01:12:17.511Z,0.90
2018-01-30T01:14:46.829Z,0.60
2018-01-30T01:17:16.095Z,0.60
2018-01-30T01:19:47.276Z,1.15
2018-01-30T01:22:16.540Z,0.60
2018-01-30T01:24:45.788Z,0.60
2018-01-30T01:27:15.086Z,0.60
2018-01-30T01:29:44.343Z,0.60
2018-01-30T01:32:13.583Z,0.70
2018-01-30T01:34:42.895Z,1.02
2018-01-30T01:37:12.123Z,0.60
2018-01-30T01:39:41.359Z,0.70
2018-01-30T01:42:10.637Z,1.23
2018-01-30T01:44:39.938Z,0.60
2018-01-30T01:47:10.210Z,0.60
2018-01-30T01:49:39.424Z,0.60
2018-01-30T01:52:08.656Z,0.60
2018-01-30T01:54:49.815Z,0.90
2018-01-30T01:57:31.919Z,0.70
2018-01-30T02:00:01.164Z,0.88
2018-01-30T02:02:30.420Z,1.20
2018-01-30T02:04:59.760Z,2.05
2018-01-30T02:07:29.037Z,2.17
2018-01-30T02:09:58.294Z,0.60
2018-01-30T02:12:27.518Z,0.60
2018-01-30T02:14:56.826Z,0.60
2018-01-30T02:17:26.080Z,0.70
2018-01-30T02:19:55.303Z,1.42
2018-01-30T02:22:24.558Z,1.00
2018-01-30T02:24:53.791Z,1.45
2018-01-30T02:27:23.054Z,1.10
2018-01-30T02:29:52.268Z,0.60
2018-01-30T02:32:21.531Z,3.97
2018-01-30T02:34:50.781Z,0.82
2018-01-30T02:37:20.357Z,0.73
2018-01-30T02:39:49.606Z,0.70
2018-01-30T02:42:18.859Z,0.80
2018-01-30T02:44:57.627Z,1.25
2018-01-30T02:47:26.970Z,0.90
2018-01-30T02:49:56.236Z,1.33
2018-01-30T02:52:25.468Z,1.15
2018-01-30T02:54:54.771Z,0.60
2018-01-30T02:57:35.050Z,0.70
2018-01-30T03:00:04.320Z,0.60
2018-01-30T03:02:33.558Z,0.55
2018-01-30T03:05:02.780Z,0.60
2018-01-30T03:07:32.008Z,0.52
2018-01-30T03:10:01.230Z,0.60
2018-01-30T03:12:30.721Z,0.50
2018-01-30T03:15:00.154Z,1.12
2018-01-30T03:17:29.485Z,0.60
2018-01-30T03:19:58.725Z,0.60
2018-01-30T03:22:27.948Z,0.60
2018-01-30T03:24:57.192Z,0.60
2018-01-30T03:27:26.652Z,0.80
2018-01-30T03:29:55.866Z,0.70
2018-01-30T03:32:25.081Z,1.10
2018-01-30T03:34:54.393Z,0.70
2018-01-30T03:37:23.611Z,0.65
2018-01-30T03:39:52.895Z,0.73
2018-01-30T03:42:22.109Z,0.75
2018-01-30T03:44:51.456Z,6.05
2018-01-30T03:47:20.705Z,0.80
2018-01-30T03:49:49.951Z,0.80
2018-01-30T03:52:19.174Z,0.82
2018-01-30T03:54:48.606Z,2.05
2018-01-30T03:57:26.863Z,1.23
2018-01-30T03:59:56.094Z,2.35
2018-01-30T04:02:25.333Z,4.62
2018-01-30T04:04:54.667Z,0.82
2018-01-30T04:07:24.005Z,1.58
2018-01-30T04:09:53.243Z,1.85
2018-01-30T04:12:22.462Z,1.25
2018-01-30T04:14:51.683Z,1.80
2018-01-30T04:17:20.946Z,1.15
2018-01-30T04:19:50.187Z,1.12
2018-01-30T04:22:19.658Z,3.83
2018-01-30T04:24:48.882Z,1.55
2018-01-30T04:27:18.145Z,1.55
2018-01-30T04:29:47.385Z,3.20
2018-01-30T04:32:16.652Z,1.87
2018-01-30T04:34:45.892Z,1.80
2018-01-30T04:37:15.156Z,1.80
2018-01-30T04:39:44.369Z,3.67
2018-01-30T04:42:13.650Z,2.95
2018-01-30T04:44:42.968Z,2.40
2018-01-30T04:47:12.201Z,2.10
2018-01-30T04:49:41.468Z,6.30
2018-01-30T04:52:10.726Z,2.00
2018-01-30T04:54:39.939Z,3.25
2018-01-30T04:57:18.587Z,3.50
2018-01-30T04:59:47.889Z,4.50
2018-01-30T05:02:17.171Z,2.20
2018-01-30T05:04:46.547Z,1.90
2018-01-30T05:07:15.928Z,2.33
2018-01-30T05:09:45.145Z,2.42
2018-01-30T05:12:14.413Z,3.12
2018-01-30T05:14:43.683Z,6.00
2018-01-30T05:17:12.921Z,5.25
2018-01-30T05:19:42.249Z,3.97
2018-01-30T05:22:11.529Z,2.80
2018-01-30T05:24:40.792Z,3.33
2018-01-30T05:27:10.049Z,3.60
2018-01-30T05:29:39.283Z,3.85
2018-01-30T05:32:08.533Z,3.83
2018-01-30T05:34:37.924Z,3.67
2018-01-30T05:37:07.191Z,3.97
2018-01-30T05:39:36.465Z,4.75
2018-01-30T05:42:06.141Z,4.93
2018-01-30T05:44:35.405Z,3.55
2018-01-30T05:47:04.616Z,4.68
2018-01-30T05:49:33.869Z,5.80
2018-01-30T05:52:03.104Z,8.05
2018-01-30T05:54:32.535Z,5.30
2018-01-30T05:57:19.193Z,4.90
2018-01-30T05:59:48.557Z,6.43
2018-01-30T06:02:17.772Z,4.60
2018-01-30T06:04:47.105Z,6.25
2018-01-30T06:07:16.318Z,5.55
2018-01-30T06:09:56.544Z,5.65
2018-01-30T06:12:25.797Z,4.47
2018-01-30T06:14:55.056Z,5.25
2018-01-30T06:17:24.403Z,6.50
2018-01-30T06:19:53.744Z,6.43
2018-01-30T06:22:23.013Z,7.37
2018-01-30T06:24:52.228Z,6.93
2018-01-30T06:27:21.492Z,10.05
2018-01-30T06:29:50.744Z,10.23
2018-01-30T06:32:20.009Z,7.00
2018-01-30T06:34:59.708Z,6.60
2018-01-30T06:37:29.046Z,9.23
2018-01-30T06:39:58.302Z,6.15
2018-01-30T06:42:27.672Z,15.30
2018-01-30T06:44:56.972Z,5.70
2018-01-30T06:47:26.196Z,10.07
2018-01-30T06:49:55.455Z,10.70
2018-01-30T06:52:24.690Z,7.35
2018-01-30T06:54:54.037Z,9.00
2018-01-30T06:57:39.579Z,7.05
2018-01-30T07:00:08.830Z,8.38
2018-01-30T07:02:38.080Z,7.50
2018-01-30T07:05:07.322Z,10.18
2018-01-30T07:07:51.613Z,11.20
2018-01-30T07:10:20.870Z,15.85
2018-01-30T07:12:50.128Z,12.57
2018-01-30T07:15:19.383Z,11.02
2018-01-30T07:17:48.779Z,7.82
2018-01-30T07:20:18.001Z,7.82
2018-01-30T07:22:47.341Z,10.85
2018-01-30T07:25:16.705Z,13.75
2018-01-30T07:27:45.976Z,14.68
2018-01-30T07:30:15.213Z,9.73
2018-01-30T07:32:44.467Z,15.23
2018-01-30T07:35:13.745Z,10.10
2018-01-30T07:37:42.985Z,14.80
2018-01-30T07:40:12.228Z,11.82
2018-01-30T07:42:41.479Z,6.90
2018-01-30T07:45:10.724Z,7.68
2018-01-30T07:47:39.951Z,9.90
2018-01-30T07:50:09.239Z,14.02
2018-01-30T07:52:38.635Z,12.73
2018-01-30T07:55:07.864Z,9.30
2018-01-30T07:57:49.701Z,14.82
2018-01-30T08:00:18.975Z,7.43
2018-01-30T08:02:48.384Z,12.32
2018-01-30T08:05:17.668Z,31.92
2018-01-30T08:07:46.894Z,16.67
2018-01-30T08:10:24.652Z,10.38
2018-01-30T08:12:53.007Z,9.68
2018-01-30T08:15:21.945Z,7.53
2018-01-30T08:17:50.291Z,9.23
2018-01-30T08:20:17.859Z,7.12
2018-01-30T08:22:45.491Z,7.18
2018-01-30T08:25:13.864Z,6.12
2018-01-30T08:27:43.085Z,20.02
2018-01-30T08:30:11.456Z,13.80
2018-01-30T08:32:39.032Z,9.10
2018-01-30T08:35:07.415Z,10.63
2018-01-30T08:37:34.995Z,8.52
2018-01-30T08:40:02.588Z,11.20
2018-01-30T08:42:30.958Z,10.10
2018-01-30T08:44:58.537Z,12.02
2018-01-30T08:47:26.175Z,14.43
2018-01-30T08:49:53.811Z,16.00
2018-01-30T08:52:22.171Z,7.28
2018-01-30T08:54:50.601Z,17.83
2018-01-30T08:57:33.177Z,10.35
2018-01-30T09:00:00.776Z,8.38
2018-01-30T09:02:28.380Z,6.10
2018-01-30T09:04:56.816Z,5.43
2018-01-30T09:07:25.238Z,7.18
2018-01-30T09:09:53.649Z,7.80
2018-01-30T09:12:22.007Z,7.50
2018-01-30T09:14:49.613Z,6.72
2018-01-30T09:17:17.245Z,6.70
2018-01-30T09:19:44.892Z,4.78
2018-01-30T09:22:12.469Z,5.22
2018-01-30T09:24:40.080Z,7.68
2018-01-30T09:27:07.676Z,9.75
2018-01-30T09:29:36.137Z,5.75
2018-01-30T09:32:03.742Z,6.50
2018-01-30T09:34:31.366Z,5.07
2018-01-30T09:36:58.958Z,7.72
2018-01-30T09:39:26.530Z,7.87
2018-01-30T09:42:07.204Z,10.88
2018-01-30T09:44:34.832Z,10.52
2018-01-30T09:47:14.157Z,6.87
2018-01-30T09:49:41.877Z,5.82
2018-01-30T09:52:10.218Z,9.93
2018-01-30T09:54:37.812Z,5.50
2018-01-30T09:57:17.854Z,6.82
2018-01-30T09:59:45.921Z,8.27
2018-01-30T10:02:13.505Z,7.20
2018-01-30T10:04:41.165Z,9.05
2018-01-30T10:07:08.870Z,15.90
2018-01-30T10:09:36.464Z,8.70
2018-01-30T10:12:04.050Z,7.82
2018-01-30T10:14:32.473Z,6.70
2018-01-30T10:17:00.091Z,8.10
2018-01-30T10:19:27.719Z,6.93
2018-01-30T10:21:55.564Z,9.00
2018-01-30T10:24:23.928Z,26.60
2018-01-30T10:26:51.506Z,8.23
2018-01-30T10:29:19.138Z,14.48
2018-01-30T10:31:46.784Z,12.68
2018-01-30T10:34:15.837Z,11.93
2018-01-30T10:36:43.444Z,7.97
2018-01-30T10:39:11.067Z,8.80
2018-01-30T10:41:38.699Z,10.00
2018-01-30T10:44:07.058Z,8.65
2018-01-30T10:46:34.746Z,8.43
2018-01-30T10:49:03.160Z,9.70
2018-01-30T10:51:31.536Z,8.90
2018-01-30T10:53:59.904Z,11.38
2018-01-30T10:56:41.876Z,9.52
2018-01-30T10:59:09.487Z,9.13
2018-01-30T11:01:37.112Z,11.45
2018-01-30T11:04:04.741Z,8.93
2018-01-30T11:06:32.684Z,8.40
2018-01-30T11:09:00.326Z,8.55
2018-01-30T11:11:28.693Z,13.90
2018-01-30T11:13:56.304Z,7.73
2018-01-30T11:16:23.940Z,11.40
2018-01-30T11:18:51.604Z,9.48
2018-01-30T11:21:19.177Z,4.77
2018-01-30T11:23:46.776Z,7.05
2018-01-30T11:26:15.137Z,10.03
2018-01-30T11:28:42.793Z,5.63
2018-01-30T11:31:10.409Z,8.30
2018-01-30T11:33:37.993Z,5.77
2018-01-30T11:36:06.349Z,6.13
2018-01-30T11:38:35.763Z,5.90
2018-01-30T11:41:05.004Z,7.27
2018-01-30T11:43:34.327Z,7.03
2018-01-30T11:46:03.651Z,6.80
2018-01-30T11:48:32.928Z,6.60
2018-01-30T11:51:02.184Z,6.17
2018-01-30T11:53:31.404Z,7.93
2018-01-30T11:56:00.713Z,12.20
2018-01-30T11:58:39.224Z,7.50
2018-01-30T12:01:08.465Z,6.70
2018-01-30T12:03:37.736Z,8.50
2018-01-30T12:06:07.001Z,7.83
2018-01-30T12:08:36.205Z,6.67
2018-01-30T12:11:06.020Z,8.60
2018-01-30T12:13:35.293Z,10.70
2018-01-30T12:16:04.520Z,5.93
2018-01-30T12:18:33.833Z,7.53
2018-01-30T12:21:03.068Z,9.60
2018-01-30T12:23:32.332Z,5.80
2018-01-30T12:26:01.641Z,10.63
2018-01-30T12:28:30.876Z,5.17
2018-01-30T12:31:00.173Z,5.33
2018-01-30T12:33:29.409Z,5.20
2018-01-30T12:35:58.631Z,8.03
2018-01-30T12:38:27.914Z,5.47
2018-01-30T12:40:57.482Z,13.77
2018-01-30T12:43:26.887Z,7.30
2018-01-30T12:45:56.138Z,5.17
2018-01-30T12:48:25.353Z,7.23
2018-01-30T12:50:54.673Z,7.90
2018-01-30T12:53:23.928Z,7.77
2018-01-30T12:55:53.240Z,11.43
2018-01-30T12:58:32.248Z,22.03
2018-01-30T13:01:01.595Z,16.67
2018-01-30T13:03:30.876Z,16.87
2018-01-30T13:06:00.181Z,13.73
2018-01-30T13:08:29.412Z,8.07
2018-01-30T13:10:58.723Z,5.90
2018-01-30T13:13:27.943Z,18.03
2018-01-30T13:16:06.173Z,14.77
2018-01-30T13:18:35.447Z,8.70
2018-01-30T13:21:04.700Z,11.77
2018-01-30T13:23:33.999Z,17.70
2018-01-30T13:26:01.604Z,7.43
2018-01-30T13:28:29.188Z,4.60
2018-01-30T13:30:56.808Z,6.67
2018-01-30T13:33:24.384Z,9.53
2018-01-30T13:35:52.081Z,5.77
2018-01-30T13:38:36.885Z,6.73
2018-01-30T13:41:04.725Z,5.00
2018-01-30T13:43:43.602Z,5.10
2018-01-30T13:46:11.220Z,8.20
2018-01-30T13:48:40.315Z,8.53
2018-01-30T13:51:23.636Z,6.10
2018-01-30T13:53:51.243Z,8.37
2018-01-30T13:56:30.900Z,10.47
2018-01-30T13:58:58.557Z,7.50
2018-01-30T14:01:26.126Z,11.03
2018-01-30T14:04:09.361Z,9.83
2018-01-30T14:06:36.974Z,10.17
2018-01-30T14:09:17.118Z,12.40
2018-01-30T14:11:59.767Z,11.40
2018-01-30T14:14:28.159Z,12.53
2018-01-30T14:16:56.519Z,12.63
2018-01-30T14:19:24.288Z,8.23
2018-01-30T14:21:51.873Z,14.30
2018-01-30T14:24:19.704Z,14.33
2018-01-30T14:26:47.493Z,12.23
2018-01-30T14:29:16.541Z,14.00
2018-01-30T14:31:45.113Z,12.80
2018-01-30T14:34:12.681Z,11.03
2018-01-30T14:36:40.476Z,18.00
2018-01-30T14:39:08.085Z,14.20
2018-01-30T14:41:36.503Z,12.60
2018-01-30T14:44:04.117Z,21.55
2018-01-30T14:46:32.284Z,14.43
2018-01-30T14:49:11.960Z,11.47
2018-01-30T14:51:39.564Z,15.40
2018-01-30T14:54:19.708Z,14.37
2018-01-30T14:57:01.264Z,19.27
2018-01-30T14:59:29.090Z,15.20
2018-01-30T15:02:08.592Z,11.00
2018-01-30T15:04:51.198Z,15.67
2018-01-30T15:07:18.926Z,14.70
2018-01-30T15:09:46.544Z,16.92
2018-01-30T15:12:14.153Z,14.25
2018-01-30T15:14:41.768Z,16.20
2018-01-30T15:17:09.501Z,13.70
2018-01-30T15:19:37.224Z,21.98
2018-01-30T15:22:05.596Z,16.05
2018-01-30T15:24:33.177Z,27.02
2018-01-30T15:27:02.620Z,17.75
2018-01-30T15:29:30.316Z,16.92
2018-01-30T15:31:57.918Z,14.35
2018-01-30T15:34:25.522Z,13.23
2018-01-30T15:36:53.852Z,15.20
2018-01-30T15:39:21.457Z,12.63
2018-01-30T15:41:49.168Z,15.40
2018-01-30T15:44:17.496Z,14.90
2018-01-30T15:46:45.096Z,15.27
2018-01-30T15:49:12.838Z,17.02
2018-01-30T15:51:49.423Z,21.48
2018-01-30T15:54:17.017Z,19.73
2018-01-30T15:56:56.393Z,12.95
2018-01-30T15:59:38.685Z,15.27
2018-01-30T16:02:06.310Z,18.25
2018-01-30T16:04:34.677Z,14.65
2018-01-30T16:07:03.316Z,21.15
2018-01-30T16:09:30.926Z,17.10
2018-01-30T16:11:58.558Z,15.70
2018-01-30T16:14:26.186Z,14.32
2018-01-30T16:16:53.797Z,18.33
2018-01-30T16:19:21.439Z,21.08
2018-01-30T16:21:49.200Z,16.55
2018-01-30T16:24:16.847Z,28.87
2018-01-30T16:26:44.526Z,17.75
2018-01-30T16:29:12.146Z,24.05
2018-01-30T16:31:39.768Z,16.65
2018-01-30T16:34:07.465Z,22.90
2018-01-30T16:36:35.329Z,14.32
2018-01-30T16:39:04.018Z,15.73
2018-01-30T16:41:32.409Z,17.95
2018-01-30T16:44:00.033Z,30.15
2018-01-30T16:46:27.636Z,17.58
2018-01-30T16:48:55.263Z,18.92
2018-01-30T16:51:22.862Z,27.02
2018-01-30T16:53:51.246Z,33.40
2018-01-30T16:56:30.674Z,23.90
2018-01-30T16:58:58.340Z,19.92
2018-01-30T17:01:25.884Z,19.95
2018-01-30T17:03:53.453Z,20.62
2018-01-30T17:06:21.061Z,20.50
2018-01-30T17:08:48.682Z,16.27
2018-01-30T17:11:16.302Z,18.12
2018-01-30T17:13:43.899Z,19.17
2018-01-30T17:16:12.232Z,29.05
2018-01-30T17:18:39.821Z,23.00
2018-01-30T17:21:07.441Z,29.58
2018-01-30T17:23:35.090Z,22.10
2018-01-30T17:26:02.676Z,23.12
2018-01-30T17:28:31.137Z,23.55
2018-01-30T17:30:58.788Z,15.55
2018-01-30T17:33:26.396Z,29.33
2018-01-30T17:35:53.989Z,22.13
2018-01-30T17:38:21.566Z,20.45
2018-01-30T17:40:49.394Z,18.55
2018-01-30T17:43:17.011Z,23.25
2018-01-30T17:46:00.822Z,19.20
2018-01-30T17:48:28.669Z,20.42
2018-01-30T17:51:01.309Z,21.20
2018-01-30T17:53:30.228Z,20.55
2018-01-30T17:55:58.140Z,28.98
2018-01-30T17:58:38.084Z,22.27
2018-01-30T18:01:05.690Z,19.60
2018-01-30T18:03:34.044Z,26.62
2018-01-30T18:06:01.658Z,21.70
2018-01-30T18:08:29.222Z,24.00
2018-01-30T18:10:57.580Z,19.83
2018-01-30T18:13:25.976Z,21.25
2018-01-30T18:15:53.813Z,21.45
2018-01-30T18:18:21.689Z,26.35
2018-01-30T18:20:49.398Z,26.45
2018-01-30T18:23:17.141Z,27.98
2018-01-30T18:25:44.851Z,28.83
2018-01-30T18:28:13.152Z,21.50
2018-01-30T18:30:41.104Z,19.15
2018-01-30T18:33:08.777Z,21.83
2018-01-30T18:35:36.392Z,19.75
2018-01-30T18:38:04.964Z,21.25
2018-01-30T18:40:32.652Z,23.05
2018-01-30T18:43:00.424Z,23.67
2018-01-30T18:45:28.200Z,22.65
2018-01-30T18:47:56.202Z,27.75
2018-01-30T18:50:23.948Z,28.12
2018-01-30T18:52:51.722Z,26.98
2018-01-30T18:55:19.440Z,27.80
2018-01-30T18:58:03.561Z,26.50
2018-01-30T19:00:32.151Z,25.83
2018-01-30T19:02:59.775Z,27.50
2018-01-30T19:05:28.123Z,24.63
2018-01-30T19:07:55.708Z,26.17
2018-01-30T19:10:23.319Z,27.60
2018-01-30T19:12:51.797Z,22.83
2018-01-30T19:15:20.542Z,24.42
2018-01-30T19:17:48.196Z,22.40
2018-01-30T19:20:16.548Z,20.90
2018-01-30T19:22:44.136Z,20.35
2018-01-30T19:25:22.145Z,28.95
2018-01-30T19:27:50.524Z,20.70
2018-01-30T19:30:18.933Z,29.85
2018-01-30T19:32:46.524Z,22.80
2018-01-30T19:35:14.852Z,22.02
2018-01-30T19:37:42.468Z,26.42
2018-01-30T19:40:10.844Z,24.00
2018-01-30T19:42:38.415Z,24.85
2018-01-30T19:45:06.007Z,25.23
2018-01-30T19:47:33.654Z,21.42
2018-01-30T19:50:01.241Z,24.85
2018-01-30T19:52:28.875Z,28.38
2018-01-30T19:54:56.496Z,22.85
2018-01-30T19:57:38.013Z,24.45
2018-01-30T20:00:06.392Z,24.63
2018-01-30T20:02:34.001Z,21.55
2018-01-30T20:05:01.608Z,21.85
2018-01-30T20:07:29.181Z,23.75
2018-01-30T20:09:56.754Z,22.60
2018-01-30T20:12:24.321Z,26.05
2018-01-30T20:14:51.898Z,21.05
2018-01-30T20:17:25.094Z,23.98
2018-01-30T20:19:52.713Z,21.05
2018-01-30T20:22:21.109Z,21.37
2018-01-30T20:24:49.520Z,22.87
2018-01-30T20:27:17.128Z,22.08
2018-01-30T20:29:44.776Z,23.65
2018-01-30T20:32:12.408Z,25.52
2018-01-30T20:34:40.746Z,26.12
2018-01-30T20:37:08.345Z,25.08
2018-01-30T20:39:36.093Z,22.42
2018-01-30T20:42:03.706Z,19.58
2018-01-30T20:44:31.296Z,23.00
2018-01-30T20:46:59.728Z,24.23
2018-01-30T20:49:27.333Z,25.50
2018-01-30T20:51:54.966Z,23.83
2018-01-30T20:54:23.302Z,29.63
2018-01-30T20:57:02.531Z,23.52
2018-01-30T20:59:31.796Z,23.90
2018-01-30T21:02:02.749Z,23.58
2018-01-30T21:04:32.091Z,24.00
2018-01-30T21:07:01.512Z,31.65
2018-01-30T21:09:30.821Z,27.50
2018-01-30T21:12:00.049Z,24.20
2018-01-30T21:14:29.451Z,26.67
2018-01-30T21:16:58.706Z,22.83
2018-01-30T21:19:27.924Z,25.20
2018-01-30T21:21:57.132Z,22.42
2018-01-30T21:24:26.432Z,26.00
2018-01-30T21:26:55.666Z,25.50
2018-01-30T21:29:24.917Z,25.92
2018-01-30T21:31:54.172Z,29.55
2018-01-30T21:34:23.441Z,26.98
2018-01-30T21:36:52.660Z,26.92
2018-01-30T21:39:21.978Z,20.75
2018-01-30T21:41:50.923Z,25.90
2018-01-30T21:44:20.174Z,22.50
2018-01-30T21:46:49.422Z,23.17
2018-01-30T21:49:18.715Z,19.17
2018-01-30T21:51:48.021Z,18.55
2018-01-30T21:54:18.473Z,13.13
2018-01-30T21:57:02.608Z,21.85
2018-01-30T21:59:31.652Z,16.23
2018-01-30T22:02:00.564Z,13.80
2018-01-30T22:04:28.172Z,14.00
2018-01-30T22:06:55.762Z,14.38
2018-01-30T22:09:23.474Z,13.98
2018-01-30T22:11:51.038Z,9.90
2018-01-30T22:14:18.629Z,14.40
2018-01-30T22:16:46.321Z,13.73
2018-01-30T22:19:13.895Z,12.90
2018-01-30T22:21:41.553Z,11.68
2018-01-30T22:24:09.255Z,13.32
2018-01-30T22:26:36.838Z,11.05
2018-01-30T22:29:04.409Z,12.07
2018-01-30T22:31:32.017Z,13.75
2018-01-30T22:34:00.351Z,13.68
2018-01-30T22:36:29.036Z,11.80
2018-01-30T22:38:57.424Z,7.62
2018-01-30T22:41:25.020Z,8.95
2018-01-30T22:43:52.592Z,8.13
2018-01-30T22:46:20.236Z,8.75
